createdAt,value
2019-04-14T00:00:06.167Z,27.93
2019-04-14T00:02:27.556Z,30.32
2019-04-14T00:04:36.096Z,32.25
2019-04-14T00:06:41.879Z,32.90
2019-04-14T00:08:45.965Z,32.73
2019-04-14T00:10:50.800Z,31.65
2019-04-14T00:12:55.647Z,33.00
2019-04-14T00:14:59.940Z,30.30
2019-04-14T00:17:04.241Z,29.23
2019-04-14T00:19:08.789Z,31.07
2019-04-14T00:21:13.025Z,30.05
2019-04-14T00:23:17.270Z,28.83
2019-04-14T00:25:21.653Z,26.57
2019-04-14T00:27:25.992Z,28.23
2019-04-14T00:29:30.632Z,27.42
2019-04-14T00:31:35.132Z,27.98
2019-04-14T00:33:39.274Z,29.07
2019-04-14T00:36:02.929Z,27.45
2019-04-14T00:38:17.569Z,25.55
2019-04-14T00:40:29.275Z,26.02
2019-04-14T00:42:34.216Z,24.72
2019-04-14T00:44:40.877Z,24.95
2019-04-14T00:46:52.376Z,25.37
2019-04-14T00:48:56.570Z,24.05
2019-04-14T00:51:00.681Z,24.90
2019-04-14T00:53:05.486Z,23.77
2019-04-14T00:55:09.821Z,25.80
2019-04-14T00:57:13.946Z,25.65
2019-04-14T00:59:18.144Z,25.90
2019-04-14T01:01:21.978Z,26.82
2019-04-14T01:03:26.561Z,27.30
2019-04-14T01:05:32.879Z,27.15
2019-04-14T01:07:37.019Z,28.65
2019-04-14T01:09:41.252Z,28.83
2019-04-14T01:11:46.402Z,30.45
2019-04-14T01:13:50.851Z,30.27
2019-04-14T01:16:03.882Z,27.60
2019-04-14T01:18:01.505Z,29.87
2019-04-14T01:20:06.460Z,29.48
2019-04-14T01:22:11.885Z,29.92
2019-04-14T01:24:16.370Z,27.40
2019-04-14T01:26:20.604Z,30.17
2019-04-14T01:28:24.698Z,29.00
2019-04-14T01:30:28.535Z,29.48
2019-04-14T01:32:32.712Z,28.02
2019-04-14T01:34:37.062Z,31.70
2019-04-14T01:36:41.261Z,28.62
2019-04-14T01:38:45.460Z,32.45
2019-04-14T01:40:49.586Z,31.25
2019-04-14T01:42:54.813Z,33.85
2019-04-14T01:44:59.292Z,31.95
2019-04-14T01:47:03.442Z,32.42
2019-04-14T01:49:07.328Z,32.38
2019-04-14T01:51:28.856Z,33.65
2019-04-14T01:53:35.729Z,33.28
2019-04-14T01:55:44.222Z,34.10
2019-04-14T01:57:59.022Z,32.88
2019-04-14T02:00:05.393Z,32.73
2019-04-14T02:02:11.878Z,36.05
2019-04-14T02:04:15.985Z,35.20
2019-04-14T02:06:20.372Z,34.75
2019-04-14T02:08:24.496Z,35.75
2019-04-14T02:10:28.676Z,35.85
2019-04-14T02:12:32.512Z,34.83
2019-04-14T02:14:36.693Z,36.23
2019-04-14T02:16:47.143Z,35.35
2019-04-14T02:18:47.431Z,37.03
2019-04-14T02:20:53.494Z,37.80
2019-04-14T02:22:57.768Z,38.48
2019-04-14T02:25:01.960Z,40.28
2019-04-14T02:27:06.076Z,41.85
2019-04-14T02:29:09.988Z,40.88
2019-04-14T02:31:30.114Z,43.65
2019-04-14T02:33:44.642Z,42.60
2019-04-14T02:35:59.712Z,41.60
2019-04-14T02:38:03.424Z,40.55
2019-04-14T02:40:05.374Z,41.48
2019-04-14T02:42:17.364Z,40.30
2019-04-14T02:46:26.275Z,37.25
2019-04-14T02:48:38.205Z,38.05
2019-04-14T02:50:30.323Z,38.67
2019-04-14T02:52:41.589Z,39.50
2019-04-14T02:54:51.778Z,37.17
2019-04-14T02:56:56.481Z,38.80
2019-04-14T03:01:08.149Z,37.20
2019-04-14T03:03:10.817Z,39.53
2019-04-14T03:05:09.509Z,40.75
2019-04-14T03:07:47.740Z,42.75
2019-04-14T03:11:30.843Z,41.88
2019-04-14T03:13:45.046Z,40.75
2019-04-14T03:15:53.601Z,42.20
2019-04-14T03:18:20.463Z,41.50
2019-04-14T03:20:20.487Z,40.28
2019-04-14T03:22:33.583Z,42.58
2019-04-14T03:24:34.152Z,41.73
2019-04-14T03:26:59.430Z,41.35
2019-04-14T03:28:58.969Z,39.70
2019-04-14T03:33:33.224Z,40.83
2019-04-14T03:35:51.948Z,42.70
2019-04-14T03:41:41.239Z,47.20
2019-04-14T03:43:57.765Z,46.28
2019-04-14T03:46:12.043Z,48.30
2019-04-14T03:48:31.559Z,47.67
2019-04-14T03:50:06.029Z,47.38
2019-04-14T03:52:08.757Z,48.92
2019-04-14T03:54:07.902Z,54.85
2019-04-14T03:56:02.406Z,53.63
2019-04-14T03:58:03.681Z,55.05
2019-04-14T04:00:07.959Z,54.40
2019-04-14T04:02:12.168Z,55.25
2019-04-14T04:04:16.392Z,57.00
2019-04-14T04:06:20.359Z,69.03
2019-04-14T04:08:24.603Z,56.88
2019-04-14T04:10:29.223Z,53.17
2019-04-14T04:12:33.637Z,51.30
2019-04-14T04:14:37.850Z,53.95
2019-04-14T04:16:59.996Z,55.20
2019-04-14T04:19:23.028Z,50.98
2019-04-14T04:21:29.171Z,52.73
2019-04-14T04:23:51.242Z,48.20
2019-04-14T04:25:59.548Z,46.37
2019-04-14T04:28:05.989Z,46.85
2019-04-14T04:30:12.383Z,50.10
2019-04-14T04:32:18.654Z,49.15
2019-04-14T04:34:27.268Z,50.35
2019-04-14T04:36:35.980Z,52.83
2019-04-14T04:38:48.713Z,50.15
2019-04-14T04:40:52.943Z,51.13
2019-04-14T04:42:57.098Z,52.27
2019-04-14T04:45:01.789Z,51.68
2019-04-14T04:47:05.815Z,53.68
2019-04-14T04:49:16.488Z,53.42
2019-04-14T04:51:16.008Z,50.95
2019-04-14T04:53:20.249Z,51.95
2019-04-14T04:55:24.436Z,49.33
2019-04-14T04:57:28.655Z,53.48
2019-04-14T04:59:34.495Z,56.48
2019-04-14T05:01:38.749Z,54.80
2019-04-14T05:03:42.928Z,57.33
2019-04-14T05:06:09.326Z,56.80
2019-04-14T05:08:13.138Z,57.78
2019-04-14T05:10:19.559Z,62.38
2019-04-14T05:12:41.339Z,58.13
2019-04-14T05:14:47.988Z,60.03
2019-04-14T05:16:52.855Z,55.52
2019-04-14T05:19:05.223Z,56.70
2019-04-14T05:21:03.856Z,56.90
2019-04-14T05:23:08.074Z,59.60
2019-04-14T05:25:12.479Z,56.00
2019-04-14T05:27:16.731Z,58.30
2019-04-14T05:29:21.131Z,58.73
2019-04-14T05:31:27.750Z,56.53
2019-04-14T05:33:31.501Z,56.63
2019-04-14T05:35:35.893Z,65.83
2019-04-14T05:37:40.096Z,63.20
2019-04-14T05:39:44.305Z,59.27
2019-04-14T05:42:03.846Z,70.42
2019-04-14T05:43:58.392Z,63.08
2019-04-14T05:45:59.621Z,59.03
2019-04-14T05:48:03.455Z,60.30
2019-04-14T05:50:07.861Z,60.17
2019-04-14T05:52:12.035Z,57.70
2019-04-14T05:54:16.405Z,65.72
2019-04-14T05:56:20.704Z,53.92
2019-04-14T05:58:25.350Z,55.43
2019-04-14T06:00:29.967Z,53.73
2019-04-14T06:02:35.513Z,68.95
2019-04-14T06:04:39.649Z,56.42
2019-04-14T06:06:43.757Z,61.40
2019-04-14T06:08:47.572Z,56.95
2019-04-14T06:10:51.409Z,56.08
2019-04-14T06:12:55.273Z,53.80
2019-04-14T06:14:59.388Z,56.37
2019-04-14T06:17:03.216Z,50.33
2019-04-14T06:19:07.413Z,50.55
2019-04-14T06:21:11.538Z,48.80
2019-04-14T06:23:15.836Z,47.78
2019-04-14T06:25:20.045Z,51.28
2019-04-14T06:27:23.873Z,49.58
2019-04-14T06:29:28.057Z,49.48
2019-04-14T06:31:39.534Z,48.70
2019-04-14T06:33:45.407Z,58.38
2019-04-14T06:35:50.877Z,55.95
2019-04-14T06:38:02.226Z,50.85
2019-04-14T06:40:08.167Z,53.05
2019-04-14T06:42:12.383Z,51.23
2019-04-14T06:44:16.242Z,53.30
2019-04-14T06:46:20.071Z,50.33
2019-04-14T06:48:24.213Z,56.28
2019-04-14T06:50:28.418Z,57.15
2019-04-14T06:52:32.623Z,59.27
2019-04-14T06:54:36.735Z,57.30
2019-04-14T06:56:40.640Z,49.15
2019-04-14T06:58:44.466Z,49.27
2019-04-14T07:00:48.339Z,51.00
2019-04-14T07:02:52.463Z,49.67
2019-04-14T07:04:56.596Z,52.55
2019-04-14T07:07:00.783Z,64.12
2019-04-14T07:09:06.548Z,55.48
2019-04-14T07:11:10.647Z,58.05
2019-04-14T07:13:14.480Z,51.50
2019-04-14T07:15:18.341Z,63.28
2019-04-14T07:17:22.467Z,57.93
2019-04-14T07:19:26.299Z,93.55
2019-04-14T07:21:30.495Z,54.27
2019-04-14T07:23:34.696Z,54.67
2019-04-14T07:25:38.919Z,51.70
2019-04-14T07:27:42.767Z,56.98
2019-04-14T07:29:48.246Z,52.20
2019-04-14T07:31:56.455Z,53.48
2019-04-14T07:34:17.051Z,46.73
2019-04-14T07:36:22.898Z,46.08
2019-04-14T07:38:28.742Z,46.13
2019-04-14T07:40:34.606Z,49.75
2019-04-14T07:42:51.877Z,55.95
2019-04-14T07:44:57.369Z,45.95
2019-04-14T07:47:03.226Z,48.40
2019-04-14T07:49:08.711Z,43.92
2019-04-14T07:51:17.055Z,47.88
2019-04-14T07:53:22.913Z,43.55
2019-04-14T07:55:37.732Z,45.03
2019-04-14T07:58:01.760Z,43.10
2019-04-14T08:00:10.895Z,43.78
2019-04-14T08:02:25.861Z,43.08
2019-04-14T08:04:34.562Z,40.70
2019-04-14T08:06:38.700Z,43.73
2019-04-14T08:08:42.541Z,43.75
2019-04-14T08:10:46.693Z,43.52
2019-04-14T08:12:50.919Z,42.62
2019-04-14T08:14:55.017Z,47.35
2019-04-14T08:16:59.130Z,45.33
2019-04-14T08:19:03.341Z,40.65
2019-04-14T08:21:07.653Z,41.45
2019-04-14T08:23:11.781Z,42.70
2019-04-14T08:25:15.978Z,48.85
2019-04-14T08:27:20.088Z,43.83
2019-04-14T08:29:24.297Z,45.25
2019-04-14T08:31:28.413Z,45.78
2019-04-14T08:33:32.537Z,43.80
2019-04-14T08:35:36.392Z,49.63
2019-04-14T08:37:40.205Z,41.98
2019-04-14T08:39:44.344Z,43.23
2019-04-14T08:41:50.191Z,40.95
2019-04-14T08:43:59.117Z,41.08
2019-04-14T08:46:10.323Z,44.88
2019-04-14T08:48:24.467Z,40.90
2019-04-14T08:50:39.677Z,38.95
2019-04-14T08:52:52.357Z,41.60
2019-04-14T08:55:00.753Z,49.53
2019-04-14T08:57:12.303Z,40.40
2019-04-14T08:59:18.061Z,44.13
2019-04-14T09:01:23.917Z,66.47
2019-04-14T09:03:35.903Z,37.75
2019-04-14T09:05:41.651Z,37.20
2019-04-14T09:07:50.392Z,56.37
2019-04-14T09:09:58.859Z,38.15
2019-04-14T09:12:14.790Z,41.20
2019-04-14T09:14:10.211Z,35.40
2019-04-14T09:16:14.039Z,35.78
2019-04-14T09:18:17.871Z,36.17
2019-04-14T09:20:22.127Z,34.53
2019-04-14T09:22:26.327Z,36.83
2019-04-14T09:24:30.422Z,34.75
2019-04-14T09:26:34.647Z,35.05
2019-04-14T09:28:38.853Z,32.73
2019-04-14T09:30:42.701Z,33.78
2019-04-14T09:32:46.878Z,33.75
2019-04-14T09:34:51.073Z,34.33
2019-04-14T09:36:55.179Z,33.58
2019-04-14T09:38:59.029Z,37.42
2019-04-14T09:41:03.208Z,34.25
2019-04-14T09:43:09.383Z,34.80
2019-04-14T09:45:13.057Z,34.55
2019-04-14T09:47:16.886Z,32.33
2019-04-14T09:49:21.071Z,31.27
2019-04-14T09:51:24.890Z,31.85
2019-04-14T09:53:28.706Z,33.70
2019-04-14T09:55:32.897Z,32.80
2019-04-14T09:57:37.013Z,31.80
2019-04-14T09:59:40.817Z,31.73
2019-04-14T10:01:45.029Z,32.38
2019-04-14T10:03:49.248Z,32.23
2019-04-14T10:05:53.080Z,32.60
2019-04-14T10:07:57.353Z,33.42
2019-04-14T10:10:01.579Z,30.90
2019-04-14T10:12:05.399Z,31.33
2019-04-14T10:14:09.248Z,32.15
2019-04-14T10:16:13.394Z,29.75
2019-04-14T10:18:17.219Z,29.40
2019-04-14T10:20:21.063Z,29.00
2019-04-14T10:22:33.777Z,30.90
2019-04-14T10:24:30.468Z,28.85
2019-04-14T10:26:34.662Z,30.27
2019-04-14T10:28:38.772Z,30.43
2019-04-14T10:30:42.584Z,28.92
2019-04-14T10:32:46.689Z,28.98
2019-04-14T10:34:50.798Z,29.70
2019-04-14T10:36:55.005Z,29.23
2019-04-14T10:38:59.105Z,28.05
2019-04-14T10:41:02.970Z,28.25
2019-04-14T10:43:08.969Z,28.75
2019-04-14T10:45:13.125Z,31.55
2019-04-14T10:47:17.304Z,25.43
2019-04-14T10:49:21.502Z,26.57
2019-04-14T10:51:30.276Z,37.10
2019-04-14T10:53:31.251Z,27.00
2019-04-14T10:55:35.175Z,28.13
2019-04-14T10:57:39.553Z,25.75
2019-04-14T10:59:43.692Z,25.25
2019-04-14T11:01:47.787Z,25.37
2019-04-14T11:03:52.205Z,28.80
2019-04-14T11:06:14.042Z,26.48
2019-04-14T11:08:18.384Z,25.23
2019-04-14T11:10:22.686Z,24.52
2019-04-14T11:12:26.524Z,32.78
2019-04-14T11:14:30.317Z,25.85
2019-04-14T11:16:34.498Z,25.43
2019-04-14T11:18:38.359Z,28.85
2019-04-14T11:20:42.506Z,25.40
2019-04-14T11:22:46.726Z,25.20
2019-04-14T11:24:50.620Z,23.67
2019-04-14T11:26:54.170Z,25.37
2019-04-14T11:28:58.037Z,24.67
2019-04-14T11:31:01.937Z,24.77
2019-04-14T11:33:13.318Z,24.53
2019-04-14T11:35:18.582Z,24.13
2019-04-14T11:37:24.086Z,24.97
2019-04-14T11:39:27.996Z,24.07
2019-04-14T11:41:31.822Z,22.83
2019-04-14T11:43:35.696Z,24.10
2019-04-14T11:45:39.605Z,24.90
2019-04-14T11:47:43.424Z,25.40
2019-04-14T11:49:47.328Z,23.37
2019-04-14T11:51:55.488Z,24.13
2019-04-14T11:53:56.470Z,23.37
2019-04-14T11:56:00.379Z,23.23
2019-04-14T11:58:04.384Z,22.50
2019-04-14T12:00:26.132Z,24.10
2019-04-14T12:02:40.570Z,25.40
2019-04-14T12:04:46.114Z,24.73
2019-04-14T12:06:51.319Z,22.90
2019-04-14T12:08:59.219Z,23.17
2019-04-14T12:11:03.040Z,23.13
2019-04-14T12:13:06.938Z,24.93
2019-04-14T12:15:16.079Z,23.40
2019-04-14T12:17:16.606Z,25.80
2019-04-14T12:19:20.515Z,23.23
2019-04-14T12:21:24.044Z,23.67
2019-04-14T12:23:27.598Z,25.77
2019-04-14T12:25:31.139Z,22.37
2019-04-14T12:27:34.681Z,23.03
2019-04-14T12:29:39.048Z,23.70
2019-04-14T12:31:44.101Z,23.87
2019-04-14T12:33:47.946Z,23.37
2019-04-14T12:35:51.480Z,22.10
2019-04-14T12:37:55.013Z,22.37
2019-04-14T12:39:58.830Z,23.10
2019-04-14T12:42:06.832Z,23.03
2019-04-14T12:44:27.344Z,28.67
2019-04-14T12:46:50.876Z,21.77
2019-04-14T12:49:02.080Z,23.03
2019-04-14T12:51:07.622Z,22.53
2019-04-14T12:53:11.532Z,20.97
2019-04-14T12:55:15.647Z,20.17
2019-04-14T12:57:20.824Z,21.23
2019-04-14T12:59:26.563Z,21.77
2019-04-14T13:01:48.256Z,21.87
2019-04-14T13:03:52.138Z,22.00
2019-04-14T13:05:56.045Z,21.47
2019-04-14T13:07:59.952Z,20.17
2019-04-14T13:10:05.327Z,22.23
2019-04-14T13:12:10.390Z,22.47
2019-04-14T13:14:14.542Z,27.27
2019-04-14T13:16:18.438Z,22.80
2019-04-14T13:18:22.263Z,23.37
2019-04-14T13:20:26.172Z,21.33
2019-04-14T13:22:34.124Z,20.90
2019-04-14T13:24:35.595Z,20.97
2019-04-14T13:26:39.523Z,20.50
2019-04-14T13:28:43.044Z,21.93
2019-04-14T13:30:47.758Z,19.87
2019-04-14T13:32:51.633Z,20.40
2019-04-14T13:34:55.166Z,20.33
2019-04-14T13:36:59.038Z,19.63
2019-04-14T13:39:04.578Z,17.87
2019-04-14T13:41:08.130Z,19.07
2019-04-14T13:43:11.971Z,20.13
2019-04-14T13:45:15.577Z,20.73
2019-04-14T13:47:19.472Z,19.47
2019-04-14T13:49:23.294Z,17.93
2019-04-14T13:51:27.191Z,19.13
2019-04-14T13:53:31.098Z,18.43
2019-04-14T13:55:34.987Z,19.60
2019-04-14T13:57:38.538Z,17.33
2019-04-14T13:59:42.398Z,17.63
2019-04-14T14:01:46.200Z,17.70
2019-04-14T14:03:50.115Z,17.17
2019-04-14T14:05:54.014Z,18.90
2019-04-14T14:07:57.949Z,19.83
2019-04-14T14:10:01.825Z,18.17
2019-04-14T14:12:07.299Z,16.77
2019-04-14T14:14:24.455Z,18.17
2019-04-14T14:16:45.997Z,18.07
2019-04-14T14:18:54.302Z,17.30
2019-04-14T14:21:08.266Z,17.20
2019-04-14T14:23:27.784Z,17.53
2019-04-14T14:25:48.502Z,18.53
2019-04-14T14:27:52.134Z,17.53
2019-04-14T14:29:55.688Z,17.50
2019-04-14T14:32:01.114Z,20.47
2019-04-14T14:34:04.716Z,18.03
2019-04-14T14:36:08.248Z,18.83
2019-04-14T14:38:12.173Z,18.07
2019-04-14T14:40:16.422Z,18.83
2019-04-14T14:42:20.288Z,19.13
2019-04-14T14:44:25.646Z,18.77
2019-04-14T14:46:31.168Z,18.20
2019-04-14T14:48:36.726Z,18.20
2019-04-14T14:50:51.268Z,18.23
2019-04-14T14:52:55.159Z,18.30
2019-04-14T14:54:59.072Z,17.67
2019-04-14T14:57:02.599Z,17.40
2019-04-14T14:59:06.782Z,17.90
2019-04-14T15:01:10.682Z,16.73
2019-04-14T15:03:14.589Z,15.90
2019-04-14T15:05:18.492Z,18.57
2019-04-14T15:07:22.414Z,17.27
2019-04-14T15:09:26.301Z,17.30
2019-04-14T15:11:30.218Z,16.77
2019-04-14T15:13:34.435Z,16.97
2019-04-14T15:15:38.337Z,17.87
2019-04-14T15:17:41.872Z,19.70
2019-04-14T15:19:45.424Z,23.73
2019-04-14T15:21:49.330Z,16.83
2019-04-14T15:23:53.241Z,20.03
2019-04-14T15:25:57.195Z,20.13
2019-04-14T15:28:01.054Z,25.27
2019-04-14T15:30:10.565Z,18.10
2019-04-14T15:32:14.483Z,17.87
2019-04-14T15:34:18.391Z,16.70
2019-04-14T15:36:22.311Z,17.17
2019-04-14T15:38:26.198Z,17.13
2019-04-14T15:40:29.800Z,16.93
2019-04-14T15:42:33.704Z,21.07
2019-04-14T15:44:37.263Z,17.60
2019-04-14T15:46:41.113Z,19.40
2019-04-14T15:48:45.016Z,17.17
2019-04-14T15:50:48.832Z,17.17
2019-04-14T15:52:52.632Z,16.70
2019-04-14T15:54:56.532Z,16.03
2019-04-14T15:57:11.077Z,15.90
2019-04-14T15:59:29.567Z,18.97
2019-04-14T16:01:35.177Z,21.83
2019-04-14T16:03:40.365Z,15.20
2019-04-14T16:05:45.544Z,17.37
2019-04-14T16:07:57.238Z,19.50
2019-04-14T16:10:11.683Z,23.90
2019-04-14T16:12:22.784Z,22.40
2019-04-14T16:14:40.393Z,17.87
2019-04-14T16:17:04.568Z,17.27
2019-04-14T16:19:18.625Z,17.30
2019-04-14T16:21:22.152Z,18.93
2019-04-14T16:23:28.779Z,18.73
2019-04-14T16:25:34.318Z,15.77
2019-04-14T16:27:45.771Z,16.40
2019-04-14T16:29:59.988Z,16.27
2019-04-14T16:32:11.383Z,17.50
2019-04-14T16:34:29.054Z,14.70
2019-04-14T16:36:32.993Z,14.90
2019-04-14T16:38:36.505Z,16.27
2019-04-14T16:40:40.051Z,15.43
2019-04-14T16:42:43.967Z,15.87
2019-04-14T16:44:47.868Z,15.20
2019-04-14T16:46:51.770Z,15.07
2019-04-14T16:48:55.575Z,14.80
2019-04-14T16:50:59.960Z,14.83
2019-04-14T16:53:21.503Z,19.70
2019-04-14T16:55:39.237Z,18.10
2019-04-14T16:57:59.426Z,14.63
2019-04-14T17:00:04.673Z,36.90
2019-04-14T17:02:11.026Z,20.15
2019-04-14T17:04:14.854Z,16.07
2019-04-14T17:06:18.729Z,21.20
2019-04-14T17:08:22.852Z,15.28
2019-04-14T17:10:26.675Z,19.67
2019-04-14T17:12:30.510Z,15.20
2019-04-14T17:14:36.519Z,13.95
2019-04-14T17:16:58.436Z,13.10
2019-04-14T17:19:12.791Z,15.43
2019-04-14T17:21:33.301Z,14.13
2019-04-14T17:23:45.073Z,12.53
2019-04-14T17:25:56.757Z,13.80
2019-04-14T17:28:18.636Z,12.50
2019-04-14T17:30:30.392Z,16.52
2019-04-14T17:32:38.933Z,12.35
2019-04-14T17:35:00.917Z,16.27
2019-04-14T17:37:12.465Z,12.68
2019-04-14T17:39:36.179Z,13.38
2019-04-14T17:41:50.514Z,11.75
2019-04-14T17:44:02.420Z,15.03
2019-04-14T17:46:24.497Z,12.23
2019-04-14T17:48:33.379Z,11.97
2019-04-14T17:50:41.885Z,13.70
2019-04-14T17:52:50.595Z,14.13
2019-04-14T17:54:56.351Z,12.65
2019-04-14T17:57:02.205Z,14.15
2019-04-14T17:59:13.789Z,11.63
2019-04-14T18:01:22.108Z,12.33
2019-04-14T18:03:30.514Z,12.58
2019-04-14T18:05:51.121Z,13.32
2019-04-14T18:07:56.966Z,11.83
2019-04-14T18:10:02.724Z,13.18
2019-04-14T18:12:11.418Z,11.75
2019-04-14T18:14:28.755Z,12.88
2019-04-14T18:16:46.578Z,13.30
2019-04-14T18:19:01.085Z,13.80
2019-04-14T18:21:06.819Z,11.70
2019-04-14T18:23:11.000Z,12.43
2019-04-14T18:25:14.812Z,13.15
2019-04-14T18:27:19.183Z,12.45
2019-04-14T18:29:27.672Z,15.55
2019-04-14T18:31:33.466Z,14.10
2019-04-14T18:33:47.729Z,11.97
2019-04-14T18:35:53.435Z,12.82
2019-04-14T18:38:04.364Z,12.70
2019-04-14T18:40:10.391Z,12.37
2019-04-14T18:42:22.083Z,13.22
2019-04-14T18:44:36.937Z,16.00
2019-04-14T18:46:42.694Z,14.20
2019-04-14T18:48:48.539Z,15.10
2019-04-14T18:50:57.153Z,15.18
2019-04-14T18:53:03.024Z,18.42
2019-04-14T18:55:20.383Z,22.13
2019-04-14T18:57:26.142Z,46.28
2019-04-14T18:59:37.973Z,20.43
2019-04-14T19:01:57.476Z,16.42
2019-04-14T19:04:02.430Z,39.60
2019-04-14T19:06:06.782Z,18.05
2019-04-14T19:08:10.889Z,16.07
2019-04-14T19:10:15.101Z,17.32
2019-04-14T19:12:20.570Z,14.35
2019-04-14T19:14:29.274Z,33.60
2019-04-14T19:16:39.603Z,23.70
2019-04-14T19:18:41.941Z,18.05
2019-04-14T19:20:47.766Z,15.15
2019-04-14T19:22:51.589Z,16.67
2019-04-14T19:25:07.419Z,17.98
2019-04-14T19:27:00.977Z,22.07
2019-04-14T19:29:05.209Z,42.85
2019-04-14T19:31:09.070Z,23.83
2019-04-14T19:33:12.895Z,60.80
2019-04-14T19:35:16.731Z,18.20
2019-04-14T19:37:20.929Z,24.20
2019-04-14T19:39:25.040Z,18.17
2019-04-14T19:41:29.151Z,16.95
2019-04-14T19:43:33.380Z,33.65
2019-04-14T19:45:37.205Z,19.37
2019-04-14T19:47:41.381Z,15.88
2019-04-14T19:49:45.199Z,20.62
2019-04-14T19:51:49.045Z,14.28
2019-04-14T19:53:52.854Z,31.97
2019-04-14T19:55:56.675Z,23.62
2019-04-14T19:58:00.911Z,19.65
2019-04-14T20:00:07.043Z,14.30
2019-04-14T20:02:11.177Z,13.60
2019-04-14T20:04:15.286Z,13.03
2019-04-14T20:06:19.490Z,14.20
2019-04-14T20:08:23.611Z,15.20
2019-04-14T20:10:27.823Z,14.75
2019-04-14T20:12:31.920Z,12.58
2019-04-14T20:14:36.136Z,14.80
2019-04-14T20:16:41.905Z,12.68
2019-04-14T20:19:10.354Z,13.75
2019-04-14T20:21:22.781Z,13.32
2019-04-14T20:23:34.253Z,13.05
2019-04-14T20:25:42.384Z,17.30
2019-04-14T20:27:48.216Z,14.83
2019-04-14T20:29:54.060Z,13.60
2019-04-14T20:32:18.452Z,14.58
2019-04-14T20:34:22.575Z,33.23
2019-04-14T20:36:26.772Z,20.92
2019-04-14T20:38:30.616Z,15.03
2019-04-14T20:40:34.469Z,15.30
2019-04-14T20:42:38.368Z,13.35
2019-04-14T20:44:42.502Z,12.93
2019-04-14T20:46:46.348Z,17.35
2019-04-14T20:48:50.512Z,20.12
2019-04-14T20:50:54.632Z,14.53
2019-04-14T20:52:58.855Z,16.20
2019-04-14T20:55:03.061Z,17.00
2019-04-14T20:57:07.258Z,23.12
2019-04-14T20:59:11.096Z,14.28
2019-04-14T21:01:16.612Z,12.15
2019-04-14T21:03:25.343Z,13.60
2019-04-14T21:05:33.263Z,13.70
2019-04-14T21:07:55.455Z,22.05
2019-04-14T21:10:07.066Z,13.98
2019-04-14T21:12:28.986Z,13.05
2019-04-14T21:14:49.565Z,10.82
2019-04-14T21:17:00.725Z,27.25
2019-04-14T21:19:06.598Z,16.30
2019-04-14T21:21:17.922Z,12.80
2019-04-14T21:23:29.776Z,12.47
2019-04-14T21:25:35.634Z,11.63
2019-04-14T21:27:41.369Z,12.43
2019-04-14T21:29:49.776Z,13.68
2019-04-14T21:31:55.520Z,12.00
2019-04-14T21:34:12.813Z,12.18
2019-04-14T21:36:21.476Z,11.12
2019-04-14T21:38:39.494Z,14.33
2019-04-14T21:40:48.367Z,15.50
2019-04-14T21:42:52.549Z,10.90
2019-04-14T21:44:56.378Z,12.03
2019-04-14T21:47:00.268Z,18.85
2019-04-14T21:49:04.448Z,15.55
2019-04-14T21:51:08.297Z,11.73
2019-04-14T21:53:12.472Z,11.78
2019-04-14T21:55:16.315Z,10.98
2019-04-14T21:57:38.700Z,10.65
2019-04-14T21:59:44.468Z,28.83
2019-04-14T22:02:06.399Z,13.03
2019-04-14T22:04:15.236Z,10.60
2019-04-14T22:06:23.829Z,11.15
2019-04-14T22:08:35.326Z,9.95
2019-04-14T22:10:41.173Z,9.25
2019-04-14T22:12:46.828Z,10.18
2019-04-14T22:14:50.923Z,9.95
2019-04-14T22:16:55.021Z,10.30
2019-04-14T22:18:59.251Z,11.28
2019-04-14T22:21:03.462Z,11.68
2019-04-14T22:23:09.304Z,12.85
2019-04-14T22:25:13.214Z,12.35
2019-04-14T22:27:17.028Z,11.73
2019-04-14T22:29:21.230Z,10.32
2019-04-14T22:31:25.074Z,9.68
2019-04-14T22:33:29.242Z,12.50
2019-04-14T22:35:33.461Z,10.58
2019-04-14T22:37:37.680Z,11.90
2019-04-14T22:39:41.876Z,11.75
2019-04-14T22:41:46.004Z,12.58
2019-04-14T22:43:50.201Z,11.00
2019-04-14T22:45:54.049Z,10.18
2019-04-14T22:47:58.222Z,10.30
2019-04-14T22:50:02.418Z,10.88
2019-04-14T22:52:06.760Z,10.23
2019-04-14T22:54:10.965Z,10.32
2019-04-14T22:56:15.118Z,10.35
2019-04-14T22:58:19.294Z,11.63
2019-04-14T23:00:43.154Z,11.53
2019-04-14T23:03:04.866Z,10.85
2019-04-14T23:05:27.426Z,10.20
2019-04-14T23:07:48.010Z,11.40
2019-04-14T23:09:59.734Z,9.55
2019-04-14T23:12:05.201Z,10.85
2019-04-14T23:14:27.182Z,17.42
2019-04-14T23:16:39.270Z,13.68
2019-04-14T23:19:00.826Z,11.35
2019-04-14T23:21:15.553Z,10.43
2019-04-14T23:23:33.191Z,9.95
2019-04-14T23:25:37.379Z,10.45
2019-04-14T23:27:41.612Z,10.10
2019-04-14T23:29:45.832Z,10.13
2019-04-14T23:31:50.017Z,11.68
2019-04-14T23:33:54.136Z,11.38
2019-04-14T23:35:58.358Z,11.85
2019-04-14T23:38:02.578Z,11.85
2019-04-14T23:40:08.158Z,12.70
2019-04-14T23:42:12.329Z,12.20
2019-04-14T23:44:16.530Z,11.35
2019-04-14T23:46:20.645Z,11.10
2019-04-14T23:48:24.560Z,10.63
2019-04-14T23:50:28.654Z,11.18
2019-04-14T23:52:32.756Z,10.18
2019-04-14T23:54:36.996Z,10.95
2019-04-14T23:56:41.186Z,10.53
2019-04-14T23:58:45.312Z,10.55
